Time;durP1;ratioP1;P1;durP2;ratioP2;P2;SDS_P1;SDS_P2;PMS_P1;PMS_P2;Temp;Humidity;BMP_temperature;BMP_pressure;BME280_temperature;BME280_humidity;BME280_pressure;Samples;Min_cycle;Max_cycle;Signal;HPM_P1;HPM_P2
2022/12/27 00:00:12;;;;;;;0.90;0.90;;;5.20;99.90;;;;;;5071683;28;20456;-76
2022/12/27 00:02:39;;;;;;;2.20;0.83;;;;;;;;;;5072486;28;20438;-77
2022/12/27 00:05:09;;;;;;;2.30;1.07;;;5.10;99.90;;;;;;5072483;28;20936;-76
2022/12/27 00:07:37;;;;;;;1.70;0.80;;;5.10;99.90;;;;;;5072512;28;20441;-75
2022/12/27 00:10:04;;;;;;;2.73;0.70;;;;;;;;;;5072292;28;20441;-78
2022/12/27 00:12:31;;;;;;;0.90;0.80;;;;;;;;;;5072351;28;20940;-75
2022/12/27 00:14:58;;;;;;;0.80;0.63;;;;;;;;;;5075229;28;20496;-77
2022/12/27 00:17:25;;;;;;;1.53;1.00;;;;;;;;;;5074771;28;20461;-75
2022/12/27 00:19:52;;;;;;;0.73;0.63;;;;;;;;;;5075952;28;20461;-75
2022/12/27 00:22:19;;;;;;;1.43;0.47;;;;;;;;;;5075898;28;20472;-76
2022/12/27 00:24:49;;;;;;;0.83;0.70;;;5.00;99.90;;;;;;5075823;28;20453;-76
2022/12/27 00:27:16;;;;;;;3.03;0.87;;;;;;;;;;5075931;28;20846;-74
2022/12/27 00:29:43;;;;;;;2.33;0.87;;;;;;;;;;5075740;28;20450;-75
2022/12/27 00:32:10;;;;;;;0.80;0.60;;;;;;;;;;5074496;28;20506;-76
2022/12/27 00:34:37;;;;;;;6.63;0.90;;;;;;;;;;5075600;28;20473;-81
2022/12/27 00:37:04;;;;;;;2.13;1.00;;;;;;;;;;5075613;28;20446;-76
2022/12/27 00:39:31;;;;;;;0.80;0.47;;;;;;;;;;5075697;28;20473;-78
2022/12/27 00:42:00;;;;;;;1.00;0.80;;;;;;;;;;5075475;28;20452;-81
2022/12/27 00:44:27;;;;;;;0.60;0.50;;;;;;;;;;5075454;28;20453;-75
2022/12/27 00:46:54;;;;;;;1.80;0.70;;;;;;;;;;5074250;28;20442;-75
2022/12/27 00:49:21;;;;;;;1.73;0.60;;;;;;;;;;5075463;28;20442;-77
2022/12/27 00:51:48;;;;;;;2.00;0.93;;;;;;;;;;5075255;28;20445;-76
2022/12/27 00:54:15;;;;;;;2.10;0.60;;;;;;;;;;5075637;28;20445;-77
2022/12/27 00:56:42;;;;;;;2.93;1.00;;;;;;;;;;5079478;28;20449;-74
2022/12/27 00:59:12;;;;;;;0.90;0.60;;;4.10;99.90;;;;;;5080358;28;20481;-75
2022/12/27 01:01:39;;;;;;;1.60;0.70;;;;;;;;;;5073943;28;20511;-75
2022/12/27 01:04:06;;;;;;;2.10;0.57;;;;;;;;;;5075091;28;20952;-76
2022/12/27 01:06:35;;;;;;;0.80;0.53;;;3.90;99.90;;;;;;5074895;28;20453;-78
2022/12/27 01:09:03;;;;;;;1.63;0.50;;;3.90;99.90;;;;;;5075012;28;20449;-74
2022/12/27 01:11:31;;;;;;;1.07;0.50;;;3.80;99.90;;;;;;5074940;28;20454;-75
2022/12/27 01:13:59;;;;;;;2.00;0.57;;;3.70;99.90;;;;;;5074900;28;20446;-76
2022/12/27 01:16:29;;;;;;;2.30;0.80;;;3.70;99.90;;;;;;5073514;28;20850;-81
2022/12/27 01:18:57;;;;;;;1.57;0.47;;;;;;;;;;5074621;28;20441;-75
2022/12/27 01:21:24;;;;;;;1.53;0.70;;;3.70;99.90;;;;;;5074749;28;20469;-75
2022/12/27 01:23:52;;;;;;;2.20;0.70;;;;;;;;;;5074830;28;20796;-78
2022/12/27 01:26:21;;;;;;;1.73;0.60;;;3.60;99.90;;;;;;5074242;28;20457;-80
2022/12/27 01:28:48;;;;;;;1.17;0.50;;;;;;;;;;5074695;28;20456;-79
2022/12/27 01:31:18;;;;;;;0.77;0.60;;;3.50;99.90;;;;;;5073363;28;20441;-81
2022/12/27 01:33:46;;;;;;;1.40;0.70;;;3.40;99.90;;;;;;5074543;28;20446;-80
2022/12/27 01:36:16;;;;;;;1.47;0.73;;;2.50;99.90;;;;;;5074467;28;20840;-78
2022/12/27 01:38:43;;;;;;;1.13;0.40;;;;;;;;;;5074386;28;20458;-82
2022/12/27 01:44:00;;;;;;;0.70;0.70;;;;;;;;;;5074287;28;20507;-78
2022/12/27 01:46:27;;;;;;;1.23;0.70;;;;;;;;;;5073004;28;20473;-81
2022/12/27 01:48:55;;;;;;;5.23;0.70;;;3.10;99.90;;;;;;5074374;28;20450;-75
2022/12/27 01:51:23;;;;;;;2.13;0.70;;;;;;;;;;5074221;28;20441;-77
2022/12/27 01:53:52;;;;;;;2.10;0.77;;;2.90;99.90;;;;;;5074080;28;20968;-75
2022/12/27 01:56:24;;;;;;;2.57;0.60;;;2.90;99.90;;;;;;5074037;28;20489;-75
2022/12/27 01:58:55;;;;;;;0.63;0.60;;;2.80;99.90;;;;;;5073858;28;20484;-75
2022/12/27 02:01:26;;;;;;;1.70;1.00;;;2.80;99.90;;;;;;5072722;28;20450;-78
2022/12/27 02:03:57;;;;;;;2.07;0.80;;;2.70;99.90;;;;;;5073954;28;20446;-79
2022/12/27 02:06:24;;;;;;;2.03;1.07;;;;;;;;;;5073907;28;20445;-75
2022/12/27 02:08:56;;;;;;;2.30;0.50;;;2.60;99.90;;;;;;5073943;28;20442;-79
2022/12/27 02:14:10;;;;;;;1.33;0.83;;;2.50;99.90;;;;;;5073407;28;20434;-78
2022/12/27 02:16:37;;;;;;;0.60;0.40;;;;;;;;;;5072465;28;20840;-76
2022/12/27 02:19:13;;;;;;;4.87;0.50;;;2.40;99.90;;;;;;5073601;28;20445;-78
2022/12/27 02:22:11;;;;;;;3.53;1.00;;;2.40;99.90;;;;;;5073466;28;20475;-76
2022/12/27 02:25:15;;;;;;;0.60;0.50;;;2.30;99.90;;;;;;5073172;28;20476;-77
2022/12/27 02:28:00;;;;;;;5.13;0.80;;;2.20;99.90;;;;;;5042152;28;20457;-76
2022/12/27 02:30:31;;;;;;;1.53;0.67;;;2.10;99.90;;;;;;5072105;28;20446;-81
2022/12/27 02:33:03;;;;;;;3.80;0.90;;;2.00;99.90;;;;;;5073365;28;20451;-80
2022/12/27 02:35:34;;;;;;;0.83;0.50;;;1.90;99.90;;;;;;5073377;28;20516;-75
2022/12/27 02:38:07;;;;;;;1.27;0.70;;;1.90;99.90;;;;;;5072510;28;20446;-76
2022/12/27 02:55:25;;;;;;;1.57;0.80;;;1.50;99.90;;;;;;5072898;28;20476;-75
2022/12/27 02:57:58;;;;;;;1.83;0.70;;;1.60;99.90;;;;;;5072842;28;20473;-80
2022/12/27 03:03:27;;;;;;;1.50;0.70;;;1.70;99.90;;;;;;5073038;28;20433;-82
2022/12/27 03:06:40;;;;;;;0.60;0.50;;;2.10;99.90;;;;;;5072948;28;20461;-75
2022/12/27 03:18:10;;;;;;;1.00;0.87;;;2.50;99.90;;;;;;5072689;28;20441;-80
2022/12/27 03:26:13;;;;;;;1.33;0.70;;;2.40;99.90;;;;;;5072652;28;20445;-78
2022/12/27 03:34:32;;;;;;;1.57;0.67;;;2.40;99.90;;;;;;5072512;28;20445;-75
2022/12/27 03:39:56;;;;;;;1.67;0.60;;;2.00;99.90;;;;;;5072660;28;20429;-75
2022/12/27 03:45:11;;;;;;;2.20;0.57;;;;;;;;;;5071791;28;20453;-75
2022/12/27 03:47:46;;;;;;;1.63;0.70;;;1.90;99.90;;;;;;5072233;28;20450;-81
2022/12/27 03:50:19;;;;;;;0.70;0.40;;;2.00;99.90;;;;;;5076143;28;20441;-75
2022/12/27 03:52:49;;;;;;;0.90;0.60;;;2.10;99.90;;;;;;5076483;28;20444;-82
2022/12/27 03:55:17;;;;;;;2.27;0.80;;;2.00;99.90;;;;;;5076275;28;20504;-80
2022/12/27 03:57:44;;;;;;;0.60;0.53;;;;;;;;;;5076130;28;20481;-75
2022/12/27 04:00:12;;;;;;;1.67;0.93;;;2.10;99.90;;;;;;5075641;28;20452;-76
2022/12/27 04:02:39;;;;;;;0.93;0.60;;;;;;;;;;5076248;28;20452;-80
2022/12/27 04:05:07;;;;;;;3.37;0.97;;;2.20;99.90;;;;;;5076241;28;20445;-78
2022/12/27 04:07:34;;;;;;;2.80;0.90;;;;;;;;;;5076114;28;20449;-75
2022/12/27 04:34:44;;;;;;;0.97;0.77;;;;;;;;;;5075708;28;20487;-75
2022/12/27 04:37:15;;;;;;;2.00;1.03;;;2.00;99.90;;;;;;5075440;28;20488;-75
2022/12/27 04:54:55;;;;;;;1.93;0.87;;;;;;;;;;5075467;28;20457;-82
2022/12/27 04:56:14;;;;;;;3.90;1.80;;;;;;;;;;5075370;28;20492;-75
2022/12/27 05:02:01;;;;;;;1.27;0.90;;;1.10;99.90;;;;;;5075045;28;20495;-79
2022/12/27 05:04:14;;;;;;;1.20;1.10;;;;;;;;;;5074923;28;20440;-76
2022/12/27 05:06:41;;;;;;;1.00;0.80;;;;;;;;;;5075121;28;20446;-75
2022/12/27 05:14:38;;;;;;;1.97;1.10;;;1.00;99.90;;;;;;5074917;28;20440;-81
2022/12/27 05:17:05;;;;;;;1.93;1.17;;;;;;;;;;5073735;28;20496;-82
2022/12/27 05:19:32;;;;;;;2.10;0.97;;;;;;;;;;5074819;28;20501;-76
2022/12/27 05:27:28;;;;;;;1.00;0.80;;;;;;;;;;5074660;28;20989;-82
2022/12/27 05:29:57;;;;;;;2.67;1.10;;;0.90;99.90;;;;;;5074616;28;20925;-75
2022/12/27 05:32:24;;;;;;;3.73;1.17;;;;;;;;;;5073329;28;20453;-75
2022/12/27 05:34:51;;;;;;;1.20;1.10;;;;;;;;;;5074598;28;20446;-78
2022/12/27 05:37:18;;;;;;;3.17;1.20;;;;;;;;;;5074471;28;20485;-75
2022/12/27 05:39:45;;;;;;;6.30;2.00;;;;;;;;;;5074469;28;20453;-79
2022/12/27 05:42:12;;;;;;;2.00;1.20;;;;;;;;;;5074404;28;20453;-75
2022/12/27 05:44:39;;;;;;;4.27;1.27;;;;;;;;;;5074349;28;20445;-79
2022/12/27 05:47:07;;;;;;;1.93;1.00;;;0.50;99.90;;;;;;5073045;28;20465;-79
2022/12/27 05:49:34;;;;;;;2.00;1.30;;;;;;;;;;5074167;28;20446;-76
2022/12/27 05:52:01;;;;;;;2.23;1.17;;;;;;;;;;5074175;28;20453;-80
2022/12/27 05:54:28;;;;;;;4.93;0.97;;;;;;;;;;5074064;28;20446;-78
2022/12/27 05:56:55;;;;;;;2.47;0.90;;;;;;;;;;5074065;28;20503;-81
2022/12/27 05:59:22;;;;;;;3.43;1.10;;;;;;;;;;5073897;28;20473;-75
2022/12/27 06:01:49;;;;;;;0.70;0.60;;;;;;;;;;5072813;28;20453;-82
2022/12/27 06:04:17;;;;;;;3.07;1.10;;;0.50;99.90;;;;;;5073856;28;20445;-76
2022/12/27 06:06:44;;;;;;;1.30;1.00;;;;;;;;;;5073802;28;20454;-80
2022/12/27 06:09:12;;;;;;;4.43;1.50;;;;;;;;;;5073791;28;20446;-75
2022/12/27 06:11:39;;;;;;;1.80;1.00;;;;;;;;;;5073734;28;20446;-81
2022/12/27 06:14:06;;;;;;;7.57;1.23;;;;;;;;;;5073731;28;20553;-75
2022/12/27 06:16:33;;;;;;;1.77;0.90;;;;;;;;;;5072339;28;20496;-75
2022/12/27 06:19:00;;;;;;;3.07;1.40;;;;;;;;;;5073567;28;20937;-81
2022/12/27 06:21:28;;;;;;;2.30;0.97;;;1.20;99.90;;;;;;5073452;28;20448;-79
2022/12/27 06:23:55;;;;;;;1.20;1.00;;;;;;;;;;5073539;28;20452;-75
2022/12/27 06:26:25;;;;;;;2.77;1.50;;;1.10;99.90;;;;;;5073547;28;20933;-75
2022/12/27 06:28:52;;;;;;;1.27;0.90;;;;;;;;;;5073397;28;20456;-82
2022/12/27 06:31:20;;;;;;;9.03;1.33;;;1.00;99.90;;;;;;5072300;28;20801;-76
2022/12/27 06:33:47;;;;;;;2.17;0.93;;;;;;;;;;5073439;28;20453;-76
2022/12/27 06:36:16;;;;;;;1.87;1.03;;;0.90;99.90;;;;;;5073196;28;20481;-77
2022/12/27 06:38:44;;;;;;;2.40;0.90;;;0.80;99.90;;;;;;5073358;28;20441;-75
2022/12/27 06:41:13;;;;;;;1.17;1.07;;;0.90;99.90;;;;;;5073421;28;20812;-75
2022/12/27 06:43:41;;;;;;;0.80;0.70;;;;;;;;;;5073306;28;20460;-75
2022/12/27 06:46:11;;;;;;;0.80;0.50;;;1.00;99.90;;;;;;5072009;28;20508;-79
2022/12/27 06:48:38;;;;;;;2.67;0.93;;;;;;;;;;5073027;28;20449;-75
2022/12/27 06:51:05;;;;;;;1.53;0.90;;;;;;;;;;5073279;28;20449;-81
2022/12/27 06:53:32;;;;;;;3.77;1.10;;;;;;;;;;5073219;28;20453;-75
2022/12/27 06:56:04;;;;;;;2.93;0.80;;;1.10;99.90;;;;;;5073047;28;20449;-77
2022/12/27 06:58:31;;;;;;;2.60;0.50;;;;;;;;;;5072885;28;20985;-76
2022/12/27 07:00:58;;;;;;;1.50;1.17;;;;;;;;;;5071638;28;20955;-82
2022/12/27 07:03:25;;;;;;;8.20;1.50;;;;;;;;;;5072963;28;20461;-77
2022/12/27 07:05:52;;;;;;;5.70;1.60;;;;;;;;;;5072877;28;20461;-82
2022/12/27 07:08:20;;;;;;;4.83;1.10;;;;;;;;;;5073012;28;20442;-82
2022/12/27 07:10:47;;;;;;;1.57;1.00;;;;;;;;;;5073071;28;20807;-80
2022/12/27 07:13:15;;;;;;;2.60;0.57;;;1.60;99.90;;;;;;5072976;28;20452;-82
2022/12/27 07:15:42;;;;;;;1.23;1.00;;;;;;;;;;5071745;28;20449;-81
2022/12/27 07:18:09;;;;;;;4.63;0.97;;;;;;;;;;5072979;28;20438;-80
2022/12/27 07:20:36;;;;;;;2.50;0.83;;;;;;;;;;5072788;28;20484;-80
2022/12/27 07:23:03;;;;;;;0.53;0.47;;;;;;;;;;5072232;28;20445;-77
2022/12/27 07:25:30;;;;;;;2.73;1.10;;;;;;;;;;5072809;28;20441;-80
2022/12/27 07:27:57;;;;;;;0.80;0.70;;;;;;;;;;5072665;28;20533;-82
2022/12/27 07:30:25;;;;;;;1.60;0.87;;;1.70;99.90;;;;;;5071339;28;20445;-82
2022/12/27 07:32:52;;;;;;;1.30;0.70;;;;;;;;;;5072782;28;20480;-82
2022/12/27 07:35:19;;;;;;;2.20;1.10;;;;;;;;;;5072715;28;20449;-82
2022/12/27 07:37:46;;;;;;;1.30;1.03;;;;;;;;;;5072532;28;20445;-82
2022/12/27 07:40:13;;;;;;;1.07;0.80;;;;;;;;;;5072537;28;20820;-81
2022/12/27 07:42:40;;;;;;;2.03;1.17;;;;;;;;;;5072566;28;20461;-78
2022/12/27 07:45:08;;;;;;;2.93;1.17;;;2.00;99.90;;;;;;5072468;28;20461;-78
2022/12/27 07:47:36;;;;;;;1.47;0.70;;;2.20;99.90;;;;;;5071434;28;20584;-81
2022/12/27 07:50:03;;;;;;;4.00;1.10;;;;;;;;;;5072430;28;20881;-81
2022/12/27 07:52:30;;;;;;;4.70;0.87;;;;;;;;;;5072506;28;20967;-76
2022/12/27 07:54:57;;;;;;;4.40;0.60;;;;;;;;;;5072512;28;20520;-79
2022/12/27 07:57:24;;;;;;;1.90;0.87;;;;;;;;;;5072152;28;20450;-81
2022/12/27 07:59:51;;;;;;;1.37;0.90;;;;;;;;;;5072301;28;20449;-75
2022/12/27 08:02:19;;;;;;;3.40;0.80;;;;;;;;;;5071140;28;20445;-82
2022/12/27 08:04:47;;;;;;;0.83;0.60;;;2.50;99.90;;;;;;5072341;28;20437;-74
2022/12/27 08:07:16;;;;;;;0.97;0.67;;;2.50;99.90;;;;;;5069458;28;20493;-75
2022/12/27 08:09:45;;;;;;;1.53;0.80;;;2.60;99.90;;;;;;5060963;28;20458;-82
2022/12/27 08:12:13;;;;;;;5.50;1.10;;;;;;;;;;5070845;28;20446;-82
2022/12/27 08:14:40;;;;;;;1.03;0.93;;;;;;;;;;5072457;28;20526;-81
2022/12/27 08:17:16;;;;;;;1.77;0.90;;;2.70;99.90;;;;;;5071044;28;20464;-81
2022/12/27 08:19:43;;;;;;;2.67;0.97;;;;;;;;;;5065550;28;20480;-78
2022/12/27 08:22:11;;;;;;;0.50;0.40;;;3.00;99.90;;;;;;5059727;28;20449;-81
2022/12/27 08:24:40;;;;;;;4.23;1.50;;;;;;;;;;5071486;28;20438;-74
2022/12/27 08:27:07;;;;;;;1.93;0.80;;;;;;;;;;5067410;28;20538;-74
2022/12/27 08:29:35;;;;;;;2.40;1.37;;;;;;;;;;5072077;28;20458;-76
2022/12/27 08:32:02;;;;;;;1.67;0.77;;;;;;;;;;5070282;28;20441;-75
2022/12/27 08:34:29;;;;;;;2.33;1.07;;;;;;;;;;5051156;28;20481;-81
2022/12/27 08:36:56;;;;;;;3.30;0.83;;;;;;;;;;5054440;28;20468;-77
2022/12/27 08:39:24;;;;;;;1.10;1.00;;;4.30;99.90;;;;;;5075417;28;20449;-75
2022/12/27 08:41:53;;;;;;;1.33;0.40;;;4.40;99.90;;;;;;5072821;28;20472;-74
2022/12/27 08:44:20;;;;;;;0.67;0.43;;;;;;;;;;5060689;28;20441;-80
2022/12/27 08:46:47;;;;;;;0.50;0.40;;;4.50;99.90;;;;;;5057684;28;20485;-74
2022/12/27 08:49:14;;;;;;;1.97;1.00;;;;;;;;;;5055459;28;20449;-82
2022/12/27 08:51:41;;;;;;;0.80;0.47;;;;;;;;;;5058922;28;20438;-82
2022/12/27 08:54:08;;;;;;;7.10;1.37;;;;;;;;;;5066679;28;20433;-80
2022/12/27 08:56:37;;;;;;;1.13;0.97;;;;;;;;;;5074509;28;20984;-78
2022/12/27 08:59:04;;;;;;;6.30;1.43;;;;;;;;;;5074718;28;20482;-80
2022/12/27 09:01:31;;;;;;;0.60;0.40;;;;;;;;;;5068859;28;20466;-79
2022/12/27 09:03:58;;;;;;;3.40;1.23;;;;;;;;;;5065936;28;20488;-79
2022/12/27 09:06:26;;;;;;;2.20;1.30;;;;;;;;;;5074800;28;20803;-79
2022/12/27 09:08:54;;;;;;;1.77;1.00;;;;;;;;;;5067481;28;20473;-81
2022/12/27 09:11:23;;;;;;;2.90;1.37;;;5.90;99.90;;;;;;5054970;28;20809;-76
2022/12/27 09:13:52;;;;;;;2.00;0.70;;;5.80;99.90;;;;;;5058602;28;20465;-78
2022/12/27 09:16:21;;;;;;;3.17;1.43;;;5.90;99.90;;;;;;5053293;28;20530;-76
2022/12/27 09:18:51;;;;;;;3.47;1.00;;;6.00;99.90;;;;;;5054773;28;20508;-76
2022/12/27 09:21:19;;;;;;;3.80;1.10;;;5.90;99.90;;;;;;5054626;28;20450;-80
2022/12/27 09:23:46;;;;;;;2.57;0.93;;;;;;;;;;5054855;28;20819;-74
2022/12/27 09:26:15;;;;;;;3.70;1.00;;;6.20;99.90;;;;;;5054088;28;20509;-76
2022/12/27 09:28:42;;;;;;;2.00;1.17;;;;;;;;;;5054375;28;21027;-79
2022/12/27 09:31:13;;;;;;;1.20;0.87;;;;;;;;;;5051792;28;20467;-76
2022/12/27 09:33:41;;;;;;;3.17;1.10;;;6.00;99.90;;;;;;5067189;28;20500;-75
2022/12/27 09:36:10;;;;;;;4.37;1.40;;;5.70;99.90;;;;;;5063122;28;20801;-76
2022/12/27 09:38:38;;;;;;;1.07;0.67;;;5.80;99.90;;;;;;5064273;28;20441;-75
2022/12/27 09:41:12;;;;;;;4.03;1.50;;;5.60;99.90;;;;;;5059368;28;20926;-74
2022/12/27 09:43:43;;;;;;;2.40;1.20;;;5.70;99.90;;;;;;5066676;28;21015;-75
2022/12/27 09:46:16;;;;;;;2.63;1.20;;;5.50;99.90;;;;;;5061778;28;20596;-74
2022/12/27 09:48:46;;;;;;;1.70;1.20;;;5.40;99.90;;;;;;5053234;28;20496;-79
2022/12/27 09:51:17;;;;;;;4.03;1.60;;;5.50;99.90;;;;;;5053638;28;20484;-77
2022/12/27 09:53:48;;;;;;;3.17;1.07;;;6.00;99.90;;;;;;5052894;28;20462;-78
2022/12/27 09:56:23;;;;;;;3.50;1.30;;;6.40;99.90;;;;;;5056302;28;20473;-77
2022/12/27 09:58:52;;;;;;;1.63;1.00;;;6.20;99.90;;;;;;5061471;28;20514;-80
2022/12/27 10:01:28;;;;;;;5.23;1.30;;;6.20;99.90;;;;;;5055219;28;20504;-77
2022/12/27 10:03:56;;;;;;;3.23;1.47;;;;;;;;;;5058210;28;20969;-74
2022/12/27 10:06:50;;;;;;;1.83;1.13;;;6.20;99.90;;;;;;5061553;28;20467;-78
2022/12/27 10:09:38;;;;;;;1.23;1.00;;;6.30;99.90;;;;;;5057845;28;20462;-78
2022/12/27 10:12:19;;;;;;;3.23;1.20;;;6.00;99.90;;;;;;5052665;28;20454;-73
2022/12/27 10:14:59;;;;;;;2.23;1.20;;;6.50;99.90;;;;;;5067515;28;20513;-73
2022/12/27 10:17:42;;;;;;;2.70;1.00;;;6.50;99.90;;;;;;5053827;28;20548;-75
2022/12/27 10:20:18;;;;;;;1.00;0.90;;;6.80;99.90;;;;;;5053878;28;20466;-75
2022/12/27 10:22:47;;;;;;;3.40;1.47;;;7.40;99.90;;;;;;5053996;28;20461;-80
2022/12/27 10:25:18;;;;;;;5.63;3.57;;;7.80;99.90;;;;;;5059508;28;20836;-85
2022/12/27 10:27:46;;;;;;;2.17;1.23;;;8.30;98.40;;;;;;5055097;28;20490;-82
2022/12/27 10:30:16;;;;;;;1.10;0.60;;;7.90;99.50;;;;;;5052467;28;20463;-76
2022/12/27 10:32:44;;;;;;;5.60;1.47;;;8.30;99.90;;;;;;5053613;28;20443;-78
2022/12/27 10:35:15;;;;;;;1.20;0.90;;;8.60;98.30;;;;;;5053293;28;20451;-75
2022/12/27 10:37:43;;;;;;;1.90;1.33;;;;;;;;;;5053427;28;20523;-80
2022/12/27 10:40:14;;;;;;;1.33;1.23;;;9.10;97.20;;;;;;5053660;28;20451;-82
2022/12/27 10:42:47;;;;;;;1.90;1.40;;;8.80;98.20;;;;;;5053581;28;20443;-85
2022/12/27 10:45:26;;;;;;;1.43;1.00;;;8.40;97.40;;;;;;5052963;28;20449;-79
2022/12/27 10:47:56;;;;;;;4.10;2.47;;;8.40;97.20;;;;;;5053699;28;21005;-77
2022/12/27 10:50:25;;;;;;;5.73;1.80;;;8.70;95.80;;;;;;5053728;28;20508;-79
2022/12/27 10:52:52;;;;;;;3.93;1.40;;;;;;;;;;5053878;28;20450;-81
2022/12/27 10:55:34;;;;;;;2.50;1.17;;;8.20;97.90;;;;;;5053876;28;20570;-78
2022/12/27 10:58:21;;;;;;;6.93;4.70;;;8.10;99.20;;;;;;5060011;28;20488;-84
2022/12/27 11:00:56;;;;;;;3.00;1.47;;;7.80;98.20;;;;;;5052384;28;20438;-75
2022/12/27 11:03:27;;;;;;;1.43;1.30;;;8.30;99.20;;;;;;5057384;28;20505;-73
2022/12/27 11:06:01;;;;;;;5.17;2.00;;;8.10;99.90;;;;;;5059245;28;20447;-81
2022/12/27 11:08:29;;;;;;;2.73;2.27;;;8.10;98.60;;;;;;5054205;28;20543;-74
2022/12/27 11:11:12;;;;;;;2.30;1.20;;;8.10;97.40;;;;;;5072869;28;20450;-83
2022/12/27 11:13:40;;;;;;;3.10;1.80;;;8.30;97.50;;;;;;5072621;28;20446;-85
2022/12/27 11:16:14;;;;;;;4.20;2.33;;;8.00;98.60;;;;;;5071711;28;20507;-77
2022/12/27 11:18:46;;;;;;;2.23;0.97;;;7.80;99.50;;;;;;5073032;28;20448;-76
2022/12/27 11:21:14;;;;;;;3.80;1.17;;;7.00;99.90;;;;;;5055777;28;20454;-79
2022/12/27 11:23:45;;;;;;;2.07;1.13;;;7.00;99.90;;;;;;5061719;28;20457;-73
2022/12/27 11:26:20;;;;;;;1.90;0.63;;;6.60;99.90;;;;;;5069282;28;20462;-74
2022/12/27 11:28:51;;;;;;;1.17;0.70;;;6.90;99.90;;;;;;5063611;28;20489;-77
2022/12/27 11:31:27;;;;;;;1.80;0.80;;;6.80;99.90;;;;;;5071361;28;20538;-78
2022/12/27 11:33:57;;;;;;;3.10;1.30;;;7.50;99.60;;;;;;5052709;28;20457;-79
2022/12/27 11:36:27;;;;;;;1.10;0.80;;;7.40;98.80;;;;;;5052556;28;20461;-81
2022/12/27 11:38:55;;;;;;;6.00;4.43;;;;;;;;;;5052601;28;20507;-81
2022/12/27 11:41:32;;;;;;;3.60;1.80;;;7.10;99.90;;;;;;5071440;28;20477;-81
2022/12/27 11:44:03;;;;;;;5.27;2.07;;;7.20;99.40;;;;;;5069835;28;20446;-82
2022/12/27 11:46:41;;;;;;;1.90;1.10;;;7.10;99.90;;;;;;5051324;28;20482;-82
2022/12/27 11:49:18;;;;;;;3.07;0.80;;;7.10;99.90;;;;;;5052239;28;21043;-82
2022/12/27 11:52:10;;;;;;;2.10;1.10;;;7.00;99.90;;;;;;5052344;28;20446;-81
2022/12/27 11:55:18;;;;;;;1.30;0.90;;;7.00;99.90;;;;;;5052237;28;20549;-76
2022/12/27 11:58:14;;;;;;;7.13;1.20;;;6.80;99.90;;;;;;5047295;28;20607;-83
2022/12/27 12:00:51;;;;;;;1.13;0.60;;;7.10;99.90;;;;;;5058532;28;20449;-83
2022/12/27 12:03:51;;;;;;;0.87;0.70;;;6.70;99.90;;;;;;5072317;28;20449;-81
2022/12/27 12:06:24;;;;;;;3.63;0.90;;;6.60;99.90;;;;;;5072216;28;20942;-82
2022/12/27 12:09:18;;;;;;;1.30;0.70;;;6.50;99.90;;;;;;5072438;28;20492;-77
2022/12/27 12:11:57;;;;;;;4.90;0.70;;;6.50;99.90;;;;;;5076290;28;20477;-76
2022/12/27 12:14:56;;;;;;;4.53;1.33;;;6.80;99.90;;;;;;5075961;28;20464;-77
2022/12/27 12:17:43;;;;;;;1.83;1.30;;;6.80;99.90;;;;;;5074624;28;20445;-71
2022/12/27 12:20:32;;;;;;;1.57;0.93;;;6.80;99.90;;;;;;5073407;28;20468;-75
2022/12/27 12:23:10;;;;;;;4.30;1.63;;;6.90;99.90;;;;;;5075775;28;20444;-74
2022/12/27 12:26:11;;;;;;;1.57;0.80;;;7.10;99.90;;;;;;5076019;28;20812;-81
2022/12/27 12:29:13;;;;;;;3.67;1.40;;;7.30;99.90;;;;;;5075586;28;20493;-75
2022/12/27 12:31:59;;;;;;;2.10;1.00;;;7.40;99.90;;;;;;5074413;28;20440;-74
2022/12/27 12:35:01;;;;;;;1.17;0.90;;;7.80;99.90;;;;;;5075601;28;20460;-79
2022/12/27 12:37:51;;;;;;;5.53;1.20;;;8.30;99.90;;;;;;5043506;28;20457;-80
2022/12/27 12:40:32;;;;;;;1.80;1.03;;;8.00;99.90;;;;;;5075460;28;20469;-80
2022/12/27 12:43:17;;;;;;;1.93;1.60;;;8.20;99.90;;;;;;5075492;28;20449;-79
2022/12/27 12:46:01;;;;;;;2.47;1.20;;;8.70;99.00;;;;;;5074259;28;20456;-76
2022/12/27 12:48:42;;;;;;;7.80;1.50;;;8.10;99.00;;;;;;5075364;28;20485;-78
2022/12/27 12:51:31;;;;;;;1.77;0.70;;;8.10;99.50;;;;;;5075219;28;20937;-82
2022/12/27 12:54:10;;;;;;;2.20;1.37;;;7.90;99.30;;;;;;5072525;28;20505;-78
2022/12/27 12:56:52;;;;;;;3.37;1.00;;;7.80;99.10;;;;;;5075328;28;20468;-81
2022/12/27 12:59:38;;;;;;;1.47;1.30;;;7.50;99.90;;;;;;5057641;28;20489;-81
2022/12/27 13:02:28;;;;;;;0.93;0.70;;;7.30;99.90;;;;;;5061867;28;20461;-74
2022/12/27 13:05:07;;;;;;;3.00;1.10;;;7.60;99.90;;;;;;5071308;28;20460;-81
2022/12/27 13:07:46;;;;;;;2.70;0.80;;;8.00;99.50;;;;;;5070251;28;20442;-74
2022/12/27 13:10:47;;;;;;;3.60;1.00;;;8.30;99.90;;;;;;5055033;28;20473;-77
2022/12/27 13:13:26;;;;;;;3.37;1.10;;;7.80;99.90;;;;;;5071452;28;20512;-74
2022/12/27 13:16:09;;;;;;;2.57;1.17;;;7.50;99.90;;;;;;5072556;28;20484;-76
2022/12/27 13:18:44;;;;;;;2.40;0.80;;;7.70;99.70;;;;;;5073315;28;20434;-75
2022/12/27 13:21:21;;;;;;;4.43;1.20;;;7.80;99.90;;;;;;5054098;28;20478;-74
2022/12/27 13:23:59;;;;;;;1.60;0.87;;;8.20;99.40;;;;;;5054890;28;20454;-82
2022/12/27 13:26:35;;;;;;;1.73;1.00;;;8.30;99.50;;;;;;5054482;28;20438;-75
2022/12/27 13:29:48;;;;;;;2.90;1.27;;;8.20;99.70;;;;;;5055975;28;20538;-82
2022/12/27 13:32:24;;;;;;;3.60;1.17;;;8.90;99.20;;;;;;5028873;28;20454;-75
2022/12/27 13:35:05;;;;;;;0.70;0.50;;;8.40;97.30;;;;;;5054626;28;20512;-74
2022/12/27 13:37:46;;;;;;;2.67;0.70;;;8.00;98.60;;;;;;5071513;28;20479;-76
2022/12/27 13:40:34;;;;;;;5.80;0.87;;;8.00;98.50;;;;;;5074434;28;20446;-74
2022/12/27 13:43:36;;;;;;;0.53;0.43;;;8.10;98.50;;;;;;5074276;28;20905;-75
2022/12/27 13:46:20;;;;;;;2.20;0.87;;;8.10;98.30;;;;;;5052418;28;20458;-79
2022/12/27 13:49:12;;;;;;;2.57;0.83;;;7.70;99.60;;;;;;5054340;28;20521;-81
2022/12/27 13:51:44;;;;;;;2.03;0.60;;;7.70;99.90;;;;;;5052063;28;20473;-75
2022/12/27 13:55:00;;;;;;;1.07;0.70;;;8.00;98.90;;;;;;5053082;28;20470;-74
2022/12/27 13:57:51;;;;;;;6.00;0.97;;;8.30;97.70;;;;;;4994108;28;20449;-74
2022/12/27 14:00:19;;;;;;;1.17;0.60;;;8.20;97.80;;;;;;5030259;28;20526;-74
2022/12/27 14:03:17;;;;;;;2.30;1.00;;;8.10;98.00;;;;;;5033872;28;20483;-74
2022/12/27 14:06:07;;;;;;;2.10;0.70;;;8.00;98.10;;;;;;5034094;28;20533;-74
2022/12/27 14:09:01;;;;;;;6.77;3.30;;;7.90;98.50;;;;;;5033841;28;20561;-82
2022/12/27 14:11:40;;;;;;;1.07;0.80;;;7.60;99.00;;;;;;5050089;28;20804;-74
2022/12/27 14:14:12;;;;;;;1.30;0.77;;;7.60;98.80;;;;;;5053028;28;20447;-74
2022/12/27 14:16:53;;;;;;;4.13;1.20;;;7.40;99.60;;;;;;5052682;28;20515;-83
2022/12/27 14:19:55;;;;;;;5.43;2.57;;;7.20;99.90;;;;;;5053618;28;20852;-76
2022/12/27 14:22:39;;;;;;;2.70;1.17;;;7.20;99.90;;;;;;5053311;28;20465;-76
2022/12/27 14:25:50;;;;;;;1.77;0.93;;;7.10;99.90;;;;;;5053427;28;20450;-78
2022/12/27 14:28:45;;;;;;;8.80;3.63;;;6.90;99.90;;;;;;5053423;28;20482;-82
2022/12/27 14:31:40;;;;;;;3.67;2.10;;;6.70;99.90;;;;;;5052150;28;20458;-81
2022/12/27 14:34:41;;;;;;;14.60;8.90;;;6.70;99.90;;;;;;5054397;28;20478;-76
2022/12/27 14:37:29;;;;;;;6.73;1.80;;;6.60;99.90;;;;;;5055363;28;20446;-76
2022/12/27 14:40:39;;;;;;;5.67;2.63;;;6.50;99.90;;;;;;5054989;28;20470;-75
2022/12/27 14:43:44;;;;;;;2.60;1.57;;;6.50;99.90;;;;;;5056168;28;20434;-80
2022/12/27 14:46:42;;;;;;;0.90;0.60;;;6.40;99.90;;;;;;5054140;28;20542;-76
2022/12/27 14:49:54;;;;;;;2.50;1.00;;;6.30;99.90;;;;;;5055894;28;20482;-79
2022/12/27 14:52:58;;;;;;;2.17;1.20;;;6.20;99.90;;;;;;5042278;28;20446;-76
2022/12/27 14:55:40;;;;;;;1.60;0.70;;;6.10;99.90;;;;;;5054367;28;20806;-77
2022/12/27 14:58:30;;;;;;;1.63;1.07;;;6.10;99.90;;;;;;5053659;28;20981;-78
2022/12/27 15:01:06;;;;;;;2.03;1.00;;;5.90;99.90;;;;;;5045671;28;20446;-76
2022/12/27 15:03:53;;;;;;;1.23;0.67;;;5.90;99.90;;;;;;5054092;28;20442;-77
2022/12/27 15:06:34;;;;;;;4.13;1.50;;;5.80;99.90;;;;;;5053313;28;20446;-76
2022/12/27 15:09:11;;;;;;;2.07;1.10;;;5.80;99.90;;;;;;5053201;28;20498;-79
2022/12/27 15:11:53;;;;;;;4.73;2.13;;;5.70;99.90;;;;;;5053137;28;20457;-77
2022/12/27 15:14:52;;;;;;;5.73;3.57;;;5.70;99.90;;;;;;5053197;28;20442;-79
2022/12/27 15:17:29;;;;;;;4.43;1.27;;;5.60;99.90;;;;;;5052155;28;20516;-76
2022/12/27 15:20:14;;;;;;;3.00;1.70;;;5.60;99.90;;;;;;5053354;28;20466;-76
2022/12/27 15:22:51;;;;;;;1.03;0.67;;;5.60;99.90;;;;;;5052977;28;20468;-78
2022/12/27 15:25:27;;;;;;;2.20;1.90;;;5.50;99.90;;;;;;5051711;28;20438;-79
2022/12/27 15:28:02;;;;;;;1.63;0.97;;;5.50;99.90;;;;;;5051853;28;20450;-75
2022/12/27 15:30:39;;;;;;;2.60;1.20;;;5.40;99.90;;;;;;5051980;28;20489;-73
2022/12/27 15:33:16;;;;;;;2.50;0.90;;;5.30;99.90;;;;;;5053288;28;20458;-76
2022/12/27 15:35:54;;;;;;;4.40;0.90;;;5.20;99.90;;;;;;5052933;28;20453;-81
2022/12/27 15:38:41;;;;;;;2.57;0.90;;;5.10;99.90;;;;;;5052919;28;20442;-77
2022/12/27 15:41:27;;;;;;;0.80;0.60;;;5.00;99.90;;;;;;5052605;28;20891;-79
2022/12/27 15:44:13;;;;;;;4.50;1.07;;;4.90;99.90;;;;;;5052805;28;20439;-83
2022/12/27 15:47:00;;;;;;;1.43;0.70;;;4.70;99.90;;;;;;5058010;28;20458;-76
2022/12/27 15:49:49;;;;;;;0.70;0.70;;;4.60;99.90;;;;;;5065299;28;20500;-74
2022/12/27 15:52:24;;;;;;;3.00;0.70;;;4.30;99.90;;;;;;5064437;28;20450;-79